St Helier, United Kingdom
Current Conditions -  °F | °C
As of 8:50 PM on Friday 24 Oct 2014 (Local Time) from EGJJ Reporting Station
Broken Clouds Broken Clouds  
Wind Chill: 15°   Ceiling: 700
Heat Index: 15°   Visibility: 6mi
Dew Point: 14°   Wind: 10mph
Humidity: 94%   Direction: 300°WNW
Pressure: 30.03"   Gusts: NA
Location:  49.18°N, 2.1°W
Report Text: EGJJ 241950Z 30009KT 9999 FEW005 BKN007 15/14 Q1017 BECMG SCT007
Loading
Personal Weather Stations






























Interactive Weather Map
Tropical Storm Tracking
New forecast layout! Learn more

10-Day Weather Forecast

Advertisements
Track Severe Weather on mobile